Archival Weather

Dewar Lakes

Dewar Lakes, Canada (CWUW)

Report from: Friday, May 26, 2023 7:00 AM EDT
Current time: Thursday, July 18, 2024 10:25 PM EDT

Current weather – Weather history – Daily summaries
Weather forecast

Present weatherSM
Temperature-15.0°C (5.0°F)
Wind chill-23.8°C (-10.8°F)
Dew point-16.0°C (3.2°F)
Winds 10 kts (5.1 m/s, 11.5 mph) West-Northwest (300°)
Visibility0 ft. (0 m)
Altimeter29.60 in.Hg (1002 mB)
Relative humidity92 %
Density altitude-3,386 ft. (-1,032 m)
Remarks Fully automated report
Flight conditions Low Instrument Meteorological Conditions
Raw dataCWUW 261100Z AUTO 30010KT ////SM ////// M15/M16 A2960
An error has occurred. This application may no longer respond until reloaded. Reload 🗙